Latest Weather Observations for Wagga Wagga

IDN60801

Issued at 6:32 pm EDT Tuesday 21 February 2017 (issued every 30 minutes, with the page automatically refreshed every 10 minutes)

About weather observations | Map of weather stations | Latest weather observations for NSW | Other Formats
Station Details ID: 072150 Name: WAGGA WAGGA AMO Lat: -35.16 Lon: 147.46 Height: 212.0 m
Data from the previous 72 hours. | See also: Recent months at Wagga Wagga
Date/Time
EDT
Temp
°C
App
Temp
°C
Dew
Point
°C
Rel
Hum
%
Delta-T
°C
Wind Press
QNH
hPa
Press
MSL
hPa
Rain since
9am
mm
Dir  Spd
km/h
Gust
km/h
Spd
kts
Gust
kts
21/06:30pm 26.5 22.9 0.6 18 12.3 NE 9 15 5 8 1016.6 1015.6 0.0
21/06:00pm 27.1 22.8 -1.8 15 13.2 SE 11 19 6 10 1016.8 1015.8 0.0
21/05:30pm 27.1 22.8 -1.8 15 13.2 E 11 17 6 9 1016.9 1015.9 0.0
21/05:00pm 26.9 22.9 -1.9 15 13.1 SW 9 24 5 13 1017.1 1016.1 0.0
21/04:30pm 27.7 23.9 -0.7 15 13.3 SE 9 17 5 9 1017.1 1016.1 0.0
21/04:00pm 27.0 23.6 -0.3 17 12.8 SE 7 13 4 7 1017.7 1016.7 0.0
21/03:30pm 26.0 21.7 -1.4 16 12.5 ESE 11 24 6 13 1018.0 1017.0 0.0
21/03:00pm 25.6 21.7 -1.5 16 12.3 SSW 9 19 5 10 1018.4 1017.4 0.0
21/02:30pm 25.7 20.8 -0.5 18 12.1 WNW 15 20 8 11 1018.9 1018.0 0.0
21/02:00pm 25.0 21.7 0.0 19 11.6 N 7 13 4 7 1019.4 1018.4 0.0
21/01:30pm 23.9 20.3 0.4 21 10.9 ENE 9 17 5 9 1019.8 1018.8 0.0
21/01:00pm 23.2 18.9 0.8 23 10.4 SSE 13 26 7 14 1020.2 1019.2 0.0
21/12:30pm 23.1 18.6 -0.2 21 10.6 S 13 20 7 11 1020.7 1019.7 0.0
21/12:00pm 22.5 18.7 1.6 25 9.8 NE 11 19 6 10 1020.9 1019.9 0.0
21/11:30am 21.1 17.6 1.0 26 9.2 NE 9 11 5 6 1021.3 1020.3 0.0
21/11:00am 21.2 18.1 1.6 27 9.1 NE 7 13 4 7 1021.6 1020.6 0.0
21/10:30am 19.7 16.5 3.2 33 7.8 ENE 9 15 5 8 1021.7 1020.7 0.0
21/10:00am 18.4 15.0 4.2 39 6.8 NE 11 15 6 8 1021.6 1020.6 0.0
21/09:30am 16.1 12.4 4.5 46 5.5 E 13 15 7 8 1021.5 1020.5 0.0
21/09:00am 14.5 10.8 4.4 50 4.7 E 13 17 7 9 1021.3 1020.3 0.0
21/08:30am 12.8 9.1 4.3 56 3.9 ENE 13 15 7 8 1020.9 1019.9 0.0
21/08:00am 11.2 8.6 4.4 63 3.1 E 7 9 4 5 1020.4 1019.4 0.0
21/07:30am 9.5 6.6 4.6 71 2.2 E 9 11 5 6 1020.1 1019.1 0.0
21/07:00am 7.7 4.6 3.8 76 1.7 E 9 11 5 6 1019.5 1018.5 0.0
21/06:30am 8.8 6.7 3.8 71 2.2 E 4 9 2 5 1019.1 1018.1 0.0
21/06:00am 8.9 7.5 3.6 69 2.3 CALM 0 6 0 3 1018.8 1017.9 0.0
21/05:30am 9.2 6.6 4.0 70 2.3 E 7 9 4 5 1018.4 1017.4 0.0
21/05:00am 8.8 6.1 3.5 69 2.3 ESE 7 9 4 5 1018.4 1017.4 0.0
21/04:30am 8.3 5.3 4.0 74 1.9 E 9 11 5 6 1018.4 1017.4 0.0
21/04:00am 8.9 7.2 3.9 71 2.2 E 2 6 1 3 1018.2 1017.2 0.0
21/03:30am 8.2 6.8 3.6 73 2.0 CALM 0 0 0 0 1018.2 1017.2 0.0
21/03:00am 9.5 8.3 4.4 70 2.3 CALM 0 0 0 0 1018.1 1017.1 0.0
21/02:30am 8.1 6.4 4.2 76 1.7 E 2 6 1 3 1018.2 1017.2 0.0
21/02:00am 8.3 6.9 3.7 73 2.0 CALM 0 0 0 0 1018.2 1017.2 0.0
21/01:30am 9.9 8.5 3.8 66 2.7 CALM 0 0 0 0 1018.3 1017.3 0.0
21/01:00am 10.5 9.2 4.0 64 2.9 CALM 0 0 0 0 1018.5 1017.5 0.0
21/12:30am 10.0 8.7 3.9 66 2.7 CALM 0 0 0 0 1018.5 1017.5 0.0
21/12:00am 11.6 9.8 3.3 56 3.7 E 2 6 1 3 1018.4 1017.4 0.0
 
Date/Time
EDT
Temp
°C
App
Temp
°C
Dew
Point
°C
Rel
Hum
%
Delta-T
°C
Wind Press
QNH
hPa
Press
MSL
hPa
Rain since
9am
mm
Dir  Spd
km/h
Gust
km/h
Spd
kts
Gust
kts
20/11:30pm 11.9 8.8 3.7 57 3.7 E 9 9 5 5 1018.3 1017.3 0.0
20/11:00pm 13.6 11.2 4.3 53 4.3 NE 6 7 3 4 1018.1 1017.1 0.0
20/10:30pm 14.0 12.4 4.3 52 4.5 ESE 2 7 1 4 1017.9 1016.9 0.0
20/10:00pm 13.7 12.4 3.9 51 4.5 CALM 0 0 0 0 1017.5 1016.5 0.0
20/09:30pm 14.3 13.0 3.9 49 4.8 CALM 0 0 0 0 1017.1 1016.1 0.0
20/09:00pm 14.7 11.9 3.3 46 5.2 S 7 7 4 4 1016.7 1015.7 0.0
20/08:30pm 16.4 13.0 1.7 37 6.6 SSW 9 13 5 7 1016.2 1015.2 0.0
20/08:00pm 17.7 13.5 1.5 33 7.3 SSW 13 15 7 8 1015.7 1014.7 0.0
20/07:30pm 19.4 14.4 1.1 29 8.3 SSW 17 24 9 13 1015.3 1014.3 0.0
20/07:00pm 20.5 15.0 0.3 26 9.1 SSW 19 26 10 14 1014.9 1013.9 0.0
20/06:30pm 20.0 13.9 0.5 27 8.8 SW 22 30 12 16 1014.6 1013.5 0.0
20/06:00pm 21.7 16.1 0.9 25 9.6 SW 20 28 11 15 1014.4 1013.3 0.0
20/05:30pm 21.5 15.4 0.1 24 9.7 WSW 22 32 12 17 1014.2 1013.1 0.0
20/05:00pm 21.4 15.9 0.6 25 9.5 SW 19 35 10 19 1013.8 1012.8 0.0
20/04:30pm 21.3 15.3 0.8 25 9.4 WSW 22 35 12 19 1013.7 1012.7 0.0
20/04:00pm 21.1 15.1 0.8 26 9.3 WSW 22 33 12 18 1013.6 1012.6 0.0
20/03:30pm 20.4 14.1 1.6 28 8.7 SW 24 33 13 18 1013.7 1012.7 0.0
20/03:00pm 21.1 15.2 1.5 27 9.1 WSW 22 37 12 20 1013.7 1012.7 0.0
20/02:30pm 18.9 13.0 1.6 31 7.9 WSW 22 33 12 18 1013.9 1012.9 0.0
20/02:00pm 20.0 14.1 1.9 30 8.4 WSW 22 33 12 18 1014.0 1013.0 0.0
20/01:30pm 18.9 13.4 2.0 32 7.8 WSW 20 30 11 16 1014.4 1013.3 0.0
20/01:00pm 17.8 12.4 2.4 35 7.1 SW 20 33 11 18 1014.4 1013.3 0.0
20/12:30pm 18.1 12.9 2.5 35 7.2 W 19 30 10 16 1014.7 1013.6 0.0
20/12:00pm 16.7 11.8 4.0 43 6.0 W 19 28 10 15 1015.0 1014.0 0.0
20/11:30am 16.2 11.2 3.5 42 5.9 WSW 19 30 10 16 1015.1 1014.1 0.0
20/11:00am 15.4 10.9 4.1 47 5.3 WSW 17 24 9 13 1015.3 1014.3 0.0
20/10:30am 14.6 10.2 4.9 52 4.6 WSW 17 26 9 14 1015.3 1014.3 0.0
20/10:00am 14.1 10.0 6.0 58 3.9 W 17 20 9 11 1015.2 1014.2 0.0
20/09:30am 12.3 10.5 7.2 71 2.5 W 6 15 3 8 1015.1 1014.1 0.0
20/09:00am 11.4 10.0 8.8 84 1.3 NW 6 7 3 4 1015.1 1014.1 0.4
20/08:30am 9.7 8.0 8.3 91 0.7 S 7 9 4 5 1014.9 1013.9 0.4
20/08:12am 9.9 9.6 8.5 91 0.7 CALM 0 0 0 0 1014.6 1013.5 0.4
20/08:00am 9.0 8.5 8.0 93 0.5 CALM 0 0 0 0 1014.5 1013.4 0.4
20/07:30am 8.4 7.1 7.6 95 0.4 ENE 4 7 2 4 1013.9 1012.9 0.4
20/07:00am 7.0 4.5 6.6 97 0.2 WSW 9 9 5 5 1013.4 1012.4 0.4
20/06:30am 7.5 5.1 6.9 96 0.3 SW 9 9 5 5 1012.9 1011.9 0.4
20/06:00am 7.9 5.9 7.3 96 0.3 W 7 9 4 5 1012.5 1011.5 0.4
20/05:30am 8.9 7.0 7.4 90 0.7 WNW 7 9 4 5 1012.2 1011.2 0.2
20/05:00am 9.1 6.8 7.4 89 0.8 WNW 9 11 5 6 1012.0 1011.0 0.2
20/04:30am 9.4 8.8 7.5 88 0.9 CALM 0 6 0 3 1011.8 1010.8 0.2
20/04:00am 9.6 7.3 7.3 85 1.1 W 9 11 5 6 1011.7 1010.7 0.2
20/03:30am 9.6 6.9 7.5 87 1.0 WNW 11 13 6 7 1011.6 1010.6 0.2
20/03:00am 10.2 7.5 7.5 83 1.3 W 11 13 6 7 1011.4 1010.4 0.2
20/02:30am 10.9 8.8 8.3 84 1.3 W 9 11 5 6 1011.2 1010.2 0.2
20/02:00am 11.1 9.2 9.1 87 1.0 WSW 9 11 5 6 1011.2 1010.2 0.2
20/01:30am 11.4 8.9 8.4 82 1.5 W 11 13 6 7 1011.4 1010.4 0.2
20/01:00am 11.4 9.0 8.8 84 1.3 WSW 11 15 6 8 1011.5 1010.5 0.2
20/12:30am 11.7 8.9 8.7 82 1.5 WSW 13 17 7 9 1011.8 1010.8 0.2
20/12:00am 11.7 8.5 10.0 89 0.9 SSW 17 28 9 15 1011.7 1010.7 0.2
 
Date/Time
EDT
Temp
°C
App
Temp
°C
Dew
Point
°C
Rel
Hum
%
Delta-T
°C
Wind Press
QNH
hPa
Press
MSL
hPa
Rain since
9am
mm
Dir  Spd
km/h
Gust
km/h
Spd
kts
Gust
kts
19/11:30pm 11.8 7.5 9.2 84 1.3 SW 22 30 12 16 1011.4 1010.4 0.0
19/11:00pm 13.7 7.2 8.1 69 2.8 SW 32 44 17 24 1011.1 1010.1 0.0
19/10:31pm 15.9 8.8 6.4 53 4.7 SW 33 52 18 28 1010.5 1009.4 0.0
19/10:30pm 15.9 8.9 6.1 52 4.8 SW 32 48 17 26 1010.5 1009.4 0.0
19/10:29pm 16.1 9.1 5.9 50 5.0 SW 32 48 17 26 1010.5 1009.4 0.0
19/10:00pm 18.0 12.4 0.1 30 7.9 WNW 19 26 10 14 1009.7 1008.6 0.0
19/09:30pm 18.1 13.4 0.6 30 7.8 WNW 15 19 8 10 1009.7 1008.6 0.0
19/09:00pm 17.6 12.8 0.4 31 7.6 WNW 15 19 8 10 1009.5 1008.4 0.0
19/08:30pm 18.5 13.3 -0.1 28 8.2 W 17 24 9 13 1009.5 1008.4 0.0
19/08:00pm 19.4 13.7 -1.0 25 8.9 W 19 28 10 15 1009.1 1008.1 0.0
19/07:30pm 19.8 13.9 -0.9 25 9.1 W 20 32 11 17 1008.8 1007.8 0.0
19/07:00pm 20.1 12.2 -1.5 23 9.4 WSW 30 39 16 21 1008.6 1007.6 0.0
19/06:30pm 20.3 12.8 -1.5 23 9.5 WSW 28 39 15 21 1008.3 1007.3 0.0
19/06:00pm 21.4 14.5 -2.4 20 10.3 W 24 39 13 21 1008.2 1007.2 0.0
19/05:30pm 22.3 14.6 -2.6 19 10.8 W 28 44 15 24 1008.1 1007.1 0.0
19/05:00pm 22.7 14.7 -2.5 18 11.0 W 30 41 16 22 1008.1 1007.1 0.0
19/04:30pm 21.7 14.0 -2.6 19 10.5 W 28 41 15 22 1008.3 1007.3 0.0
19/04:00pm 22.6 15.3 -2.7 18 11.0 W 26 44 14 24 1008.4 1007.4 0.0
19/03:30pm 22.3 15.7 -3.5 17 11.0 W 22 32 12 17 1008.7 1007.7 0.0
19/03:00pm 22.0 15.1 -2.4 19 10.6 W 24 33 13 18 1009.1 1008.1 0.0
19/02:30pm 21.7 15.2 -2.7 19 10.5 W 22 35 12 19 1009.6 1008.5 0.0
19/02:00pm 21.2 14.2 -3.4 19 10.4 WNW 24 33 13 18 1009.9 1008.8 0.0
19/01:30pm 21.3 14.9 -1.4 22 10.0 WSW 22 43 12 23 1010.3 1009.2 0.0
19/01:00pm 21.4 14.6 -1.6 21 10.1 W 24 41 13 22 1010.5 1009.4 0.0
19/12:54pm 20.2 12.7 -1.3 23 9.4 W 28 46 15 25 1010.6 1009.6 0.0
19/12:30pm 19.4 12.2 -2.2 23 9.2 WSW 26 37 14 20 1011.0 1010.0 0.0
19/12:00pm 20.3 13.6 -1.1 23 9.4 W 24 35 13 19 1011.3 1010.3 0.0
19/11:30am 19.8 13.2 -0.6 25 9.0 W 24 39 13 21 1011.5 1010.5 0.0
19/11:00am 19.8 13.5 -1.0 24 9.1 WSW 22 35 12 19 1011.6 1010.6 0.0
19/10:30am 19.2 13.4 -0.3 27 8.6 WSW 20 30 11 16 1011.5 1010.5 0.0
19/10:00am 18.5 16.0 1.6 32 7.7 NE 4 9 2 5 1011.4 1010.4 0.0
19/09:30am 16.1 13.9 3.1 41 6.0 N 4 7 2 4 1011.6 1010.6 0.0
19/09:00am 14.5 11.7 3.1 46 5.2 NNE 7 13 4 7 1011.7 1010.7 0.0
19/08:30am 12.6 10.0 3.3 53 4.2 NNE 6 9 3 5 1011.5 1010.5 0.0
19/08:00am 10.8 9.2 2.3 55 3.7 CALM 0 0 0 0 1011.2 1010.2 0.0
19/07:30am 9.9 6.8 1.3 55 3.6 NW 7 9 4 5 1011.0 1010.0 0.0
19/07:00am 9.2 6.3 1.3 58 3.3 ENE 6 9 3 5 1010.5 1009.4 0.0
19/06:30am 8.9 6.1 2.3 63 2.8 NE 6 7 3 4 1010.3 1009.2 0.0
19/06:00am 9.9 7.1 1.9 57 3.4 NW 6 9 3 5 1009.9 1008.8 0.0
19/05:30am 10.0 7.0 1.8 56 3.5 NW 7 11 4 6 1009.9 1008.8 0.0
19/05:00am 10.3 6.9 1.6 55 3.7 NNW 9 11 5 6 1009.6 1008.5 0.0
19/04:30am 11.4 8.4 1.0 49 4.4 WNW 6 9 3 5 1009.5 1008.4 0.0
19/04:00am 10.6 7.3 2.3 56 3.6 N 9 11 5 6 1009.7 1008.6 0.0
19/03:30am 11.5 8.6 1.5 50 4.3 N 6 7 3 4 1009.8 1008.7 0.0
19/03:00am 11.6 9.4 1.3 49 4.4 E 2 9 1 5 1009.9 1008.8 0.0
19/02:30am 12.4 10.5 0.3 43 5.1 CALM 0 0 0 0 1010.1 1009.0 0.0
19/02:00am 12.2 9.8 0.0 43 5.1 W 2 9 1 5 1010.1 1009.0 0.0
19/01:30am 13.8 10.6 -0.2 38 5.9 W 6 7 3 4 1010.4 1009.3 0.0
19/01:00am 14.5 11.0 -1.5 33 6.6 W 7 9 4 5 1010.5 1009.4 0.0
19/12:30am 15.5 10.8 -2.0 30 7.2 SW 13 17 7 9 1010.5 1009.4 0.0
19/12:00am 15.8 10.7 -1.8 30 7.3 SW 15 17 8 9 1010.3 1009.2 0.0
 
Date/Time
EDT
Temp
°C
App
Temp
°C
Dew
Point
°C
Rel
Hum
%
Delta-T
°C
Wind Press
QNH
hPa
Press
MSL
hPa
Rain since
9am
mm
Dir  Spd
km/h
Gust
km/h
Spd
kts
Gust
kts
18/11:30pm 14.9 10.3 -0.8 34 6.6 SW 13 15 7 8 1010.4 1009.3 0.0
18/11:00pm 15.8 11.2 -1.0 31 7.1 SW 13 17 7 9 1010.3 1009.2 0.0
18/10:30pm 17.4 12.3 -1.8 27 8.1 SW 15 19 8 10 1010.1 1009.0 0.0
18/10:00pm 18.0 12.0 -1.8 26 8.4 SW 20 30 11 16 1010.0 1008.9 0.0
18/09:30pm 18.7 12.8 -2.0 24 8.8 SW 19 26 10 14 1009.6 1008.5 0.0
18/09:00pm 18.9 13.1 -1.6 25 8.8 WSW 19 24 10 13 1009.3 1008.2 0.0
18/08:30pm 19.0 15.1 1.2 30 8.1 W 11 13 6 7 1009.0 1008.0 0.0
18/08:00pm 19.7 14.0 0.4 27 8.7 SW 20 28 11 15 1008.9 1007.9 0.0
18/07:30pm 20.5 14.0 0.1 25 9.2 WSW 24 32 13 17 1008.6 1007.6 0.0
18/07:00pm 21.3 13.5 -0.6 23 9.8 SW 30 35 16 19 1008.3 1007.3 0.0

Other Formats:

Comma delimited format used in spreadsheet applications
http://www.bom.gov.au/fwo/IDN60801/IDN60801.94910.axf

JavaScript Object Notation format (JSON) in row-major order
http://www.bom.gov.au/fwo/IDN60801/IDN60801.94910.json